createdAt,value
2023-05-17T00:01:30.489Z,99898.78
2023-05-17T00:03:59.307Z,99896.38
2023-05-17T00:06:27.983Z,99895.94
2023-05-17T00:08:56.764Z,99901.16
2023-05-17T00:11:24.589Z,99903.06
2023-05-17T00:13:52.532Z,99893.00
2023-05-17T00:16:20.534Z,99896.56
2023-05-17T00:18:48.659Z,99891.53
2023-05-17T00:21:16.788Z,99897.50
2023-05-17T00:23:45.080Z,99890.00
2023-05-17T00:26:14.031Z,99898.22
2023-05-17T00:28:42.980Z,99884.44
2023-05-17T00:31:10.593Z,99888.41
2023-05-17T00:33:38.260Z,99884.66
2023-05-17T00:36:06.012Z,99882.16
2023-05-17T00:38:33.724Z,99884.66
2023-05-17T00:41:02.257Z,99878.19
2023-05-17T00:43:30.267Z,99879.63
2023-05-17T00:45:58.593Z,99883.56
2023-05-17T00:48:27.211Z,99881.47
2023-05-17T00:50:55.994Z,99877.50
2023-05-17T00:53:24.064Z,99878.09
2023-05-17T00:55:52.169Z,99877.56
2023-05-17T00:58:20.027Z,99879.59
2023-05-17T01:00:47.456Z,99877.75
2023-05-17T01:03:15.042Z,99875.06
2023-05-17T01:05:45.015Z,99878.69
2023-05-17T01:08:12.522Z,99881.41
2023-05-17T01:10:53.254Z,99883.63
2023-05-17T01:13:41.146Z,99879.97
2023-05-17T01:16:28.869Z,99877.34
2023-05-17T01:18:59.323Z,99881.75
2023-05-17T01:21:36.317Z,99880.91
2023-05-17T01:24:09.822Z,99879.03
2023-05-17T01:26:39.533Z,99870.97
2023-05-17T01:29:09.895Z,99881.22
2023-05-17T01:31:37.630Z,99884.03
2023-05-17T01:34:08.923Z,99882.38
2023-05-17T01:36:37.494Z,99888.75
2023-05-17T01:39:04.955Z,99889.25
2023-05-17T01:41:45.292Z,99892.84
2023-05-17T01:44:18.762Z,99898.88
2023-05-17T01:46:48.227Z,99899.72
2023-05-17T01:49:15.669Z,99906.84
2023-05-17T01:51:46.419Z,99903.47
2023-05-17T01:54:15.624Z,99908.28
2023-05-17T01:56:49.153Z,99917.38
2023-05-17T02:02:23.319Z,99918.09
2023-05-17T02:04:55.129Z,99918.72
2023-05-17T02:07:29.370Z,99919.94
2023-05-17T02:09:56.892Z,99922.44
2023-05-17T02:12:26.148Z,99922.28
2023-05-17T02:14:55.635Z,99934.22
2023-05-17T02:17:27.109Z,99936.63
2023-05-17T02:20:06.596Z,99933.66
2023-05-17T02:22:45.725Z,99939.09
2023-05-17T02:25:15.993Z,99939.28
2023-05-17T02:27:54.840Z,99939.28
2023-05-17T02:30:48.002Z,99934.59
2023-05-17T02:33:20.395Z,99930.69
2023-05-17T02:35:56.197Z,99936.09
2023-05-17T02:38:25.152Z,99934.41
2023-05-17T02:40:55.856Z,99943.03
2023-05-17T02:43:25.014Z,99942.06
2023-05-17T02:45:53.314Z,99939.28
2023-05-17T02:48:21.349Z,99951.56
2023-05-17T02:50:50.215Z,99956.41
2023-05-17T02:53:19.284Z,99950.44
2023-05-17T02:55:47.757Z,99957.16
2023-05-17T02:58:22.287Z,99959.34
2023-05-17T03:01:24.571Z,99964.56
2023-05-17T03:03:56.073Z,99966.47
2023-05-17T03:06:41.469Z,99975.88
2023-05-17T03:15:12.036Z,99986.78
2023-05-17T03:17:54.331Z,99991.09
2023-05-17T03:23:36.352Z,99998.56
2023-05-17T03:26:15.804Z,100000.25
2023-05-17T03:28:51.669Z,100010.28
2023-05-17T03:31:31.118Z,100009.72
2023-05-17T03:49:39.402Z,100049.84
2023-05-17T03:52:26.619Z,100050.28
2023-05-17T03:55:02.461Z,100062.88
2023-05-17T03:57:42.902Z,100066.75
2023-05-17T04:00:25.404Z,100070.13
2023-05-17T04:03:02.331Z,100071.91
2023-05-17T04:05:33.248Z,100070.50
2023-05-17T04:08:11.378Z,100080.38
2023-05-17T04:10:47.412Z,100085.50
2023-05-17T04:13:22.133Z,100090.25
2023-05-17T04:15:50.450Z,100087.28
2023-05-17T04:18:18.411Z,100093.03
2023-05-17T04:20:46.279Z,100113.72
2023-05-17T04:23:14.348Z,100113.56
2023-05-17T04:25:43.855Z,100104.63
2023-05-17T04:28:12.318Z,100115.06
2023-05-17T04:30:44.551Z,100108.16
2023-05-17T04:33:14.005Z,100100.69
2023-05-17T04:35:42.313Z,100107.13
2023-05-17T04:38:09.952Z,100106.28
2023-05-17T04:40:37.411Z,100106.28
2023-05-17T04:43:04.750Z,100098.81
2023-05-17T04:45:33.607Z,100107.56
2023-05-17T04:48:02.208Z,100118.00
2023-05-17T04:50:30.779Z,100117.72
2023-05-17T04:52:58.441Z,100119.59
2023-05-17T04:55:26.519Z,100130.72
2023-05-17T04:57:54.126Z,100132.00
2023-05-17T05:00:23.849Z,100128.63
2023-05-17T05:02:58.838Z,100127.34
2023-05-17T05:05:27.076Z,100129.38
2023-05-17T05:07:54.688Z,100144.47
2023-05-17T05:10:23.000Z,100134.34
2023-05-17T05:12:50.746Z,100150.09
2023-05-17T05:15:19.080Z,100142.25
2023-05-17T05:17:53.036Z,100150.19
2023-05-17T05:20:20.964Z,100145.25
2023-05-17T05:22:48.576Z,100157.72
2023-05-17T05:25:17.997Z,100154.00
2023-05-17T05:27:45.588Z,100156.03
2023-05-17T05:30:22.065Z,100161.34
2023-05-17T05:32:51.771Z,100160.53
2023-05-17T05:35:19.311Z,100162.41
2023-05-17T05:37:47.610Z,100166.84
2023-05-17T05:40:15.260Z,100165.19
2023-05-17T05:42:42.784Z,100176.50
2023-05-17T05:45:10.841Z,100174.28
2023-05-17T05:47:38.701Z,100186.38
2023-05-17T05:50:06.652Z,100179.78
2023-05-17T05:52:34.118Z,100186.84
2023-05-17T05:55:01.462Z,100184.31
2023-05-17T05:57:29.818Z,100192.25
2023-05-17T05:59:57.299Z,100185.34
2023-05-17T06:02:24.948Z,100186.09
2023-05-17T06:04:52.467Z,100197.28
2023-05-17T06:07:19.881Z,100187.88
2023-05-17T06:09:47.357Z,100185.00
2023-05-17T06:12:14.823Z,100187.31
2023-05-17T06:14:42.311Z,100196.53
2023-05-17T06:17:09.590Z,100193.72
2023-05-17T06:19:37.169Z,100195.22
2023-05-17T06:22:04.807Z,100189.50
2023-05-17T06:24:33.315Z,100194.72
2023-05-17T06:27:00.885Z,100197.09
2023-05-17T06:29:28.393Z,100197.63
2023-05-17T06:31:56.978Z,100203.50
2023-05-17T06:34:24.261Z,100201.53
2023-05-17T06:36:52.235Z,100200.19
2023-05-17T06:39:19.732Z,100205.31
2023-05-17T06:41:47.153Z,100209.88
2023-05-17T06:44:17.804Z,100209.69
2023-05-17T06:46:45.172Z,100206.69
2023-05-17T06:49:12.456Z,100202.91
2023-05-17T06:51:39.932Z,100211.31
2023-05-17T06:54:07.325Z,100214.06
2023-05-17T06:56:34.692Z,100220.59
2023-05-17T06:59:02.431Z,100225.81
2023-05-17T07:01:30.420Z,100229.72
2023-05-17T07:03:57.892Z,100232.69
2023-05-17T07:06:25.274Z,100239.09
2023-05-17T07:08:54.585Z,100237.53
2023-05-17T07:11:22.024Z,100231.34
2023-05-17T07:13:50.698Z,100236.16
2023-05-17T07:16:19.074Z,100233.50
2023-05-17T07:18:46.729Z,100236.63
2023-05-17T07:21:14.375Z,100241.53
2023-05-17T07:23:41.957Z,100233.69
2023-05-17T07:26:09.639Z,100236.50
2023-05-17T07:28:37.239Z,100237.44
2023-05-17T07:31:04.684Z,100241.44
2023-05-17T07:33:32.313Z,100235.38
2023-05-17T07:35:59.923Z,100231.81
2023-05-17T07:38:27.307Z,100231.50
2023-05-17T07:40:54.848Z,100231.19
2023-05-17T07:43:22.370Z,100223.13
2023-05-17T07:45:52.827Z,100227.34
2023-05-17T07:48:20.383Z,100230.81
2023-05-17T07:50:49.110Z,100232.56
2023-05-17T07:53:16.594Z,100229.75
2023-05-17T07:55:44.119Z,100225.34
2023-05-17T07:58:14.612Z,100237.91
2023-05-17T08:00:42.741Z,100241.94
2023-05-17T08:03:10.248Z,100234.31
2023-05-17T08:05:37.796Z,100252.13
2023-05-17T08:08:05.404Z,100253.28
2023-05-17T08:10:34.823Z,100251.25
2023-05-17T08:13:02.390Z,100253.31
2023-05-17T08:15:30.108Z,100249.13
2023-05-17T08:17:57.760Z,100253.56
2023-05-17T08:20:25.412Z,100259.16
2023-05-17T08:22:52.886Z,100253.06
2023-05-17T08:25:21.217Z,100259.75
2023-05-17T08:27:48.724Z,100269.06
2023-05-17T08:30:25.274Z,100274.94
2023-05-17T08:32:56.926Z,100277.81
2023-05-17T08:35:29.028Z,100280.19
2023-05-17T08:37:56.727Z,100296.69
2023-05-17T08:40:24.332Z,100302.44
2023-05-17T08:42:52.542Z,100299.75
2023-05-17T08:45:20.726Z,100300.59
2023-05-17T08:47:49.254Z,100306.16
2023-05-17T08:50:17.684Z,100310.03
2023-05-17T08:52:46.361Z,100308.13
2023-05-17T08:55:16.669Z,100306.59
2023-05-17T08:57:44.962Z,100313.28
2023-05-17T09:00:15.300Z,100321.50
2023-05-17T09:02:43.242Z,100311.22
2023-05-17T09:05:11.261Z,100318.19
2023-05-17T09:07:38.796Z,100326.31
2023-05-17T09:10:06.578Z,100320.81
2023-05-17T09:12:42.195Z,100322.97
2023-05-17T09:15:15.184Z,100332.88
2023-05-17T09:17:43.484Z,100334.94
2023-05-17T09:20:11.745Z,100332.31
2023-05-17T09:22:39.428Z,100335.41
2023-05-17T09:25:07.580Z,100336.81
2023-05-17T09:27:35.919Z,100336.38
2023-05-17T09:30:03.456Z,100327.50
2023-05-17T09:32:33.443Z,100326.91
2023-05-17T09:35:02.738Z,100320.78
2023-05-17T09:37:30.414Z,100323.34
2023-05-17T09:39:58.083Z,100331.81
2023-05-17T09:42:26.471Z,100326.06
2023-05-17T09:45:01.954Z,100326.28
2023-05-17T09:47:30.644Z,100341.00
2023-05-17T09:50:00.634Z,100338.06
2023-05-17T09:52:32.241Z,100352.53
2023-05-17T09:55:00.414Z,100358.06
2023-05-17T09:57:28.496Z,100354.16
2023-05-17T09:59:59.287Z,100357.16
2023-05-17T10:02:31.695Z,100361.66
2023-05-17T10:04:59.859Z,100360.66
2023-05-17T10:07:28.491Z,100369.19
2023-05-17T10:09:56.628Z,100357.16
2023-05-17T10:12:27.785Z,100365.72
2023-05-17T10:14:56.234Z,100354.59
2023-05-17T10:17:24.652Z,100342.09
2023-05-17T10:19:52.980Z,100356.53
2023-05-17T10:22:23.646Z,100349.59
2023-05-17T10:24:51.993Z,100348.66
2023-05-17T10:27:21.012Z,100360.06
2023-05-17T10:29:50.470Z,100357.69
2023-05-17T10:32:21.700Z,100363.47
2023-05-17T10:34:57.986Z,100357.63
2023-05-17T10:37:38.087Z,100359.19
2023-05-17T10:40:05.882Z,100364.63
2023-05-17T10:42:33.290Z,100356.53
2023-05-17T10:45:01.591Z,100363.72
2023-05-17T10:47:32.854Z,100362.03
2023-05-17T10:50:00.376Z,100361.47
2023-05-17T10:52:27.885Z,100362.56
2023-05-17T10:54:57.127Z,100362.31
2023-05-17T11:00:10.969Z,100374.66
2023-05-17T11:02:44.602Z,100374.25
2023-05-17T11:05:28.112Z,100370.81
2023-05-17T11:08:24.924Z,100373.09
2023-05-17T11:11:11.918Z,100384.06
2023-05-17T11:13:46.489Z,100381.19
2023-05-17T11:16:18.091Z,100386.72
2023-05-17T11:18:47.359Z,100377.84
2023-05-17T11:21:21.198Z,100382.84
2023-05-17T11:23:54.054Z,100375.38
2023-05-17T11:26:33.364Z,100382.06
2023-05-17T11:29:12.976Z,100381.66
2023-05-17T11:31:44.635Z,100379.69
2023-05-17T11:34:32.263Z,100376.09
2023-05-17T11:37:01.939Z,100373.13
2023-05-17T11:39:32.384Z,100378.97
2023-05-17T11:42:00.437Z,100387.47
2023-05-17T11:44:34.790Z,100383.19
2023-05-17T11:47:05.286Z,100387.78
2023-05-17T11:49:36.252Z,100378.75
2023-05-17T11:52:05.250Z,100385.41
2023-05-17T11:54:32.908Z,100383.97
2023-05-17T11:57:03.337Z,100392.09
2023-05-17T11:59:37.274Z,100385.13
2023-05-17T12:02:04.790Z,100396.69
2023-05-17T12:04:35.109Z,100398.31
2023-05-17T12:07:02.755Z,100398.44
2023-05-17T12:09:30.787Z,100405.69
2023-05-17T12:12:00.176Z,100405.13
2023-05-17T12:14:28.225Z,100410.69
2023-05-17T12:16:59.825Z,100413.63
2023-05-17T12:19:29.963Z,100420.97
2023-05-17T12:22:14.994Z,100410.53
2023-05-17T12:24:43.382Z,100421.91
2023-05-17T12:27:11.148Z,100426.09
2023-05-17T12:29:39.186Z,100422.03
2023-05-17T12:32:08.330Z,100414.97
2023-05-17T12:34:36.044Z,100424.38
2023-05-17T12:37:03.709Z,100423.13
2023-05-17T12:39:31.439Z,100429.56
2023-05-17T12:41:59.205Z,100429.41
2023-05-17T12:44:26.500Z,100426.75
2023-05-17T12:46:56.403Z,100433.41
2023-05-17T12:49:24.201Z,100433.47
2023-05-17T12:51:51.973Z,100433.44
2023-05-17T12:54:26.842Z,100433.97
2023-05-17T12:56:55.161Z,100444.91
2023-05-17T12:59:25.496Z,100440.84
2023-05-17T13:01:57.730Z,100440.56
2023-05-17T13:04:29.676Z,100447.00
2023-05-17T13:06:58.663Z,100442.94
2023-05-17T13:09:28.086Z,100452.22
2023-05-17T13:11:56.730Z,100447.00
2023-05-17T13:14:34.053Z,100444.75
2023-05-17T13:17:02.186Z,100448.66
2023-05-17T13:19:29.730Z,100441.72
2023-05-17T13:21:57.506Z,100444.97
2023-05-17T13:24:26.395Z,100441.63
2023-05-17T13:26:54.226Z,100447.97
2023-05-17T13:29:31.885Z,100438.44
2023-05-17T13:32:07.429Z,100432.66
2023-05-17T13:34:35.690Z,100435.72
2023-05-17T13:37:03.359Z,100430.78
2023-05-17T13:39:30.977Z,100447.72
2023-05-17T13:41:59.237Z,100431.31
2023-05-17T13:44:26.862Z,100439.97
2023-05-17T13:46:54.362Z,100443.56
2023-05-17T13:49:22.826Z,100441.06
2023-05-17T13:51:50.887Z,100445.66
2023-05-17T13:54:20.328Z,100449.94
2023-05-17T13:56:48.282Z,100444.94
2023-05-17T13:59:19.301Z,100446.63
2023-05-17T14:01:47.027Z,100446.34
2023-05-17T14:04:14.510Z,100444.25
2023-05-17T14:06:42.280Z,100439.06
2023-05-17T14:09:10.728Z,100442.94
2023-05-17T14:11:38.846Z,100436.53
2023-05-17T14:14:06.293Z,100444.31
2023-05-17T14:16:33.865Z,100444.31
2023-05-17T14:19:04.226Z,100449.03
2023-05-17T14:21:32.769Z,100451.78
2023-05-17T14:24:00.603Z,100447.06
2023-05-17T14:26:28.048Z,100455.16
2023-05-17T14:28:55.979Z,100447.38
2023-05-17T14:31:23.567Z,100467.41
2023-05-17T14:33:51.580Z,100458.47
2023-05-17T14:36:20.073Z,100465.13
2023-05-17T14:38:48.611Z,100469.34
2023-05-17T14:41:16.226Z,100468.72
2023-05-17T14:43:43.989Z,100470.66
2023-05-17T14:46:11.795Z,100476.75
2023-05-17T14:48:39.497Z,100478.66
2023-05-17T14:51:07.149Z,100483.06
2023-05-17T14:53:34.560Z,100479.97
2023-05-17T14:56:02.120Z,100477.66
2023-05-17T14:58:29.666Z,100477.72
2023-05-17T15:01:04.731Z,100474.88
2023-05-17T15:03:34.236Z,100473.66
2023-05-17T15:06:04.545Z,100486.41
2023-05-17T15:08:34.896Z,100481.41
2023-05-17T15:11:03.208Z,100482.91
2023-05-17T15:13:30.753Z,100490.31
2023-05-17T15:15:58.831Z,100484.91
2023-05-17T15:18:26.386Z,100486.13
2023-05-17T15:20:53.744Z,100488.09
2023-05-17T15:23:21.253Z,100487.81
2023-05-17T15:25:48.703Z,100490.59
2023-05-17T15:28:16.233Z,100491.69
2023-05-17T15:30:43.597Z,100491.44
2023-05-17T15:33:11.828Z,100489.78
2023-05-17T15:35:43.270Z,100493.09
2023-05-17T15:38:11.080Z,100498.38
2023-05-17T15:40:38.435Z,100491.69
2023-05-17T15:43:05.793Z,100499.50
2023-05-17T15:45:33.545Z,100502.88
2023-05-17T15:48:02.079Z,100502.28
2023-05-17T15:50:29.603Z,100505.25
2023-05-17T15:52:56.966Z,100507.28
2023-05-17T15:55:24.579Z,100512.31
2023-05-17T15:57:52.005Z,100505.59
2023-05-17T16:00:20.305Z,100511.16
2023-05-17T16:02:47.743Z,100507.78
2023-05-17T16:05:15.188Z,100515.03
2023-05-17T16:07:42.696Z,100519.22
2023-05-17T16:10:19.762Z,100522.59
2023-05-17T16:12:49.479Z,100517.75
2023-05-17T16:15:17.684Z,100522.47
2023-05-17T16:17:45.397Z,100527.97
2023-05-17T16:20:13.189Z,100528.91
2023-05-17T16:22:45.722Z,100532.78
2023-05-17T16:25:16.046Z,100527.75
2023-05-17T16:27:47.568Z,100519.88
2023-05-17T16:30:16.391Z,100527.06
2023-05-17T16:32:44.154Z,100530.72
2023-05-17T16:35:12.809Z,100531.69
2023-05-17T16:37:40.687Z,100531.91
2023-05-17T16:40:08.540Z,100529.19
2023-05-17T16:42:36.255Z,100528.59
2023-05-17T16:45:05.492Z,100535.56
2023-05-17T16:47:34.749Z,100532.44
2023-05-17T16:50:02.419Z,100535.81
2023-05-17T16:52:30.304Z,100536.50
2023-05-17T16:55:03.363Z,100536.53
2023-05-17T16:57:32.012Z,100534.84
2023-05-17T17:00:00.978Z,100539.16
2023-05-17T17:02:28.792Z,100538.22
2023-05-17T17:04:56.348Z,100534.63
2023-05-17T17:07:23.634Z,100540.34
2023-05-17T17:09:51.255Z,100552.59
2023-05-17T17:12:24.599Z,100550.91
2023-05-17T17:14:53.793Z,100547.56
2023-05-17T17:17:21.649Z,100549.50
2023-05-17T17:19:49.020Z,100557.06
2023-05-17T17:22:16.883Z,100560.44
2023-05-17T17:24:44.506Z,100555.38
2023-05-17T17:27:11.959Z,100562.78
2023-05-17T17:29:39.473Z,100560.41
2023-05-17T17:32:07.242Z,100561.00
2023-05-17T17:34:34.759Z,100568.06
2023-05-17T17:37:02.261Z,100566.28
2023-05-17T17:39:29.767Z,100565.66
2023-05-17T17:41:57.178Z,100563.53
2023-05-17T17:44:24.745Z,100566.75
2023-05-17T17:46:52.222Z,100572.03
2023-05-17T17:49:19.717Z,100573.47
2023-05-17T17:51:47.275Z,100567.72
2023-05-17T17:54:14.679Z,100574.06
2023-05-17T17:56:42.105Z,100578.31
2023-05-17T17:59:13.445Z,100581.06
2023-05-17T18:01:41.102Z,100589.28
2023-05-17T18:04:09.793Z,100591.94
2023-05-17T18:06:37.402Z,100596.59
2023-05-17T18:09:04.723Z,100600.16
2023-05-17T18:11:32.184Z,100595.78
2023-05-17T18:13:59.779Z,100606.19
2023-05-17T18:16:27.515Z,100596.97
2023-05-17T18:18:55.108Z,100598.38
2023-05-17T18:21:22.678Z,100606.22
2023-05-17T18:23:50.073Z,100598.31
2023-05-17T18:26:17.450Z,100599.44
2023-05-17T18:28:44.903Z,100602.53
2023-05-17T18:31:13.839Z,100614.22
2023-05-17T18:33:41.176Z,100600.59
2023-05-17T18:36:08.527Z,100609.63
2023-05-17T18:38:35.904Z,100614.44
2023-05-17T18:41:03.570Z,100616.53
2023-05-17T18:43:34.886Z,100626.00
2023-05-17T18:46:05.646Z,100628.72
2023-05-17T18:48:36.333Z,100643.44
2023-05-17T18:51:04.499Z,100644.38
2023-05-17T18:53:33.898Z,100644.47
2023-05-17T18:56:04.033Z,100644.25
2023-05-17T18:58:33.425Z,100644.47
2023-05-17T19:01:04.304Z,100646.16
2023-05-17T19:03:33.254Z,100646.34
2023-05-17T19:06:06.063Z,100654.97
2023-05-17T19:08:39.046Z,100658.53
2023-05-17T19:11:09.101Z,100660.44
2023-05-17T19:13:44.181Z,100666.06
2023-05-17T19:16:12.924Z,100671.13
2023-05-17T19:18:43.182Z,100680.16
2023-05-17T19:21:13.972Z,100677.31
2023-05-17T19:23:48.335Z,100682.47
2023-05-17T19:26:18.361Z,100693.78
2023-05-17T19:28:53.555Z,100696.06
2023-05-17T19:31:25.533Z,100706.56
2023-05-17T19:33:57.488Z,100709.75
2023-05-17T19:36:27.690Z,100715.00
2023-05-17T19:39:01.742Z,100713.94
2023-05-17T19:41:34.821Z,100714.78
2023-05-17T19:44:05.495Z,100724.00
2023-05-17T19:46:43.479Z,100722.72
2023-05-17T19:49:18.141Z,100721.03
2023-05-17T19:51:50.986Z,100725.25
2023-05-17T19:54:23.169Z,100721.78
2023-05-17T19:56:55.633Z,100729.88
2023-05-17T19:59:30.591Z,100735.28
2023-05-17T20:02:00.689Z,100738.22
2023-05-17T20:04:30.365Z,100726.19
2023-05-17T20:07:00.328Z,100741.72
2023-05-17T20:09:34.067Z,100752.22
2023-05-17T20:12:06.850Z,100759.34
2023-05-17T20:14:38.944Z,100756.00
2023-05-17T20:17:10.900Z,100758.69
2023-05-17T20:19:45.113Z,100765.19
2023-05-17T20:22:17.377Z,100757.88
2023-05-17T20:24:51.992Z,100766.66
2023-05-17T20:27:24.415Z,100766.50
2023-05-17T20:30:05.366Z,100777.00
2023-05-17T20:32:37.396Z,100779.69
2023-05-17T20:35:08.942Z,100779.97
2023-05-17T20:37:40.338Z,100784.28
2023-05-17T20:40:13.146Z,100782.06
2023-05-17T20:42:44.560Z,100791.78
2023-05-17T20:45:19.242Z,100797.44
2023-05-17T20:47:49.788Z,100800.97
2023-05-17T20:50:31.371Z,100802.88
2023-05-17T20:53:00.665Z,100798.75
2023-05-17T20:55:29.579Z,100806.53
2023-05-17T20:57:58.491Z,100806.41
2023-05-17T21:00:26.866Z,100801.28
2023-05-17T21:02:57.147Z,100798.94
2023-05-17T21:05:25.030Z,100808.00
2023-05-17T21:07:52.615Z,100813.41
2023-05-17T21:10:20.038Z,100809.75
2023-05-17T21:12:47.413Z,100814.06
2023-05-17T21:15:17.052Z,100813.91
2023-05-17T21:17:44.801Z,100811.00
2023-05-17T21:20:12.505Z,100813.03
2023-05-17T21:22:39.854Z,100817.81
2023-05-17T21:25:07.396Z,100815.94
2023-05-17T21:27:34.918Z,100825.06
2023-05-17T21:30:02.388Z,100820.66
2023-05-17T21:32:29.979Z,100827.78
2023-05-17T21:34:59.736Z,100824.19
2023-05-17T21:37:27.163Z,100826.09
2023-05-17T21:39:54.593Z,100835.03
2023-05-17T21:42:21.954Z,100832.03
2023-05-17T21:44:49.436Z,100825.69
2023-05-17T21:47:16.769Z,100834.47
2023-05-17T21:49:45.159Z,100833.16
2023-05-17T21:52:12.488Z,100834.53
2023-05-17T21:54:41.280Z,100843.06
2023-05-17T21:57:08.713Z,100849.78
2023-05-17T21:59:36.301Z,100851.84
2023-05-17T22:02:03.696Z,100849.78
2023-05-17T22:04:31.472Z,100851.28
2023-05-17T22:06:58.876Z,100867.19
2023-05-17T22:09:26.386Z,100853.31
2023-05-17T22:11:58.205Z,100857.91
2023-05-17T22:14:25.995Z,100860.63
2023-05-17T22:16:53.489Z,100862.13
2023-05-17T22:19:21.381Z,100860.63
2023-05-17T22:21:51.046Z,100862.38
2023-05-17T22:24:19.977Z,100870.81
2023-05-17T22:26:47.368Z,100869.72
2023-05-17T22:29:14.849Z,100863.66
2023-05-17T22:31:42.336Z,100869.22
2023-05-17T22:34:09.824Z,100866.59
2023-05-17T22:36:37.419Z,100865.00
2023-05-17T22:39:05.377Z,100876.34
2023-05-17T22:41:32.686Z,100871.66
2023-05-17T22:44:00.102Z,100866.06
2023-05-17T22:46:27.831Z,100873.81
2023-05-17T22:48:58.107Z,100872.94
2023-05-17T22:51:26.216Z,100883.44
2023-05-17T22:53:53.581Z,100881.59
2023-05-17T22:56:21.080Z,100890.19
2023-05-17T22:58:48.409Z,100890.19
2023-05-17T23:01:15.892Z,100889.34
2023-05-17T23:03:43.408Z,100891.50
2023-05-17T23:06:10.993Z,100892.19
2023-05-17T23:08:39.078Z,100890.22
2023-05-17T23:11:06.333Z,100886.03
2023-05-17T23:13:33.975Z,100890.59
2023-05-17T23:16:01.332Z,100885.91
2023-05-17T23:18:28.777Z,100893.75
2023-05-17T23:20:56.458Z,100893.75
2023-05-17T23:23:24.236Z,100891.47
2023-05-17T23:25:52.471Z,100894.28
2023-05-17T23:28:19.915Z,100896.47
2023-05-17T23:30:48.935Z,100896.66
2023-05-17T23:33:16.603Z,100896.31
2023-05-17T23:35:44.641Z,100889.03
2023-05-17T23:38:12.771Z,100894.09
2023-05-17T23:40:41.041Z,100883.28
2023-05-17T23:43:10.139Z,100888.41
2023-05-17T23:45:37.687Z,100889.16
2023-05-17T23:48:05.447Z,100879.88
2023-05-17T23:50:32.805Z,100876.22
2023-05-17T23:53:03.641Z,100884.41
2023-05-17T23:55:31.487Z,100882.00
2023-05-17T23:57:58.872Z,100873.91
